sensor_id;sensor_type;location;lat;lon;timestamp;pressure;altitude;pressure_sealevel;temperature;humidity
72548;BME280;60570;50.848;6.776;2023-05-20T00:00:04;101092.59;;;17.75;47.39
72548;BME280;60570;50.848;6.776;2023-05-20T00:01:06;101104.28;;;17.77;47.54
72548;BME280;60570;50.848;6.776;2023-05-20T00:02:08;101097.78;;;17.73;47.77
72548;BME280;60570;50.848;6.776;2023-05-20T00:03:09;101099.25;;;17.67;47.83
72548;BME280;60570;50.848;6.776;2023-05-20T00:04:10;101099.16;;;17.63;47.62
72548;BME280;60570;50.848;6.776;2023-05-20T00:05:12;101101.22;;;17.66;47.76
72548;BME280;60570;50.848;6.776;2023-05-20T00:06:14;101100.78;;;17.64;47.77
72548;BME280;60570;50.848;6.776;2023-05-20T00:07:14;101104.03;;;17.66;47.65
72548;BME280;60570;50.848;6.776;2023-05-20T00:08:17;101096.00;;;17.65;47.59
72548;BME280;60570;50.848;6.776;2023-05-20T00:09:17;101098.34;;;17.63;47.98
72548;BME280;60570;50.848;6.776;2023-05-20T00:10:19;101099.88;;;17.60;48.07
72548;BME280;60570;50.848;6.776;2023-05-20T00:11:19;101097.97;;;17.64;47.75
72548;BME280;60570;50.848;6.776;2023-05-20T00:12:21;101097.91;;;17.61;47.74
72548;BME280;60570;50.848;6.776;2023-05-20T00:13:21;101094.38;;;17.64;47.59
72548;BME280;60570;50.848;6.776;2023-05-20T00:14:23;101097.19;;;17.64;47.66
72548;BME280;60570;50.848;6.776;2023-05-20T00:15:24;101103.25;;;17.66;47.63
72548;BME280;60570;50.848;6.776;2023-05-20T00:16:29;101095.91;;;17.61;47.82
72548;BME280;60570;50.848;6.776;2023-05-20T00:17:30;101101.53;;;17.61;47.68
72548;BME280;60570;50.848;6.776;2023-05-20T00:18:31;101095.16;;;17.64;47.60
72548;BME280;60570;50.848;6.776;2023-05-20T00:19:32;101095.53;;;17.63;47.69
72548;BME280;60570;50.848;6.776;2023-05-20T00:20:35;101098.72;;;17.61;47.80
72548;BME280;60570;50.848;6.776;2023-05-20T00:21:35;101097.09;;;17.60;47.87
72548;BME280;60570;50.848;6.776;2023-05-20T00:22:37;101097.84;;;17.57;47.74
72548;BME280;60570;50.848;6.776;2023-05-20T00:23:37;101098.66;;;17.58;47.52
72548;BME280;60570;50.848;6.776;2023-05-20T00:24:39;101100.63;;;17.57;47.75
72548;BME280;60570;50.848;6.776;2023-05-20T00:25:39;101102.28;;;17.58;47.73
72548;BME280;60570;50.848;6.776;2023-05-20T00:26:41;101098.28;;;17.59;47.67
72548;BME280;60570;50.848;6.776;2023-05-20T00:27:41;101098.22;;;17.56;47.92
72548;BME280;60570;50.848;6.776;2023-05-20T00:28:43;101101.91;;;17.60;47.81
72548;BME280;60570;50.848;6.776;2023-05-20T00:29:43;101106.25;;;17.57;47.77
72548;BME280;60570;50.848;6.776;2023-05-20T00:30:45;101104.53;;;17.53;47.69
72548;BME280;60570;50.848;6.776;2023-05-20T00:31:46;101097.75;;;17.54;47.53
72548;BME280;60570;50.848;6.776;2023-05-20T00:32:47;101093.69;;;17.51;47.70
72548;BME280;60570;50.848;6.776;2023-05-20T00:33:48;101093.69;;;17.51;47.79
72548;BME280;60570;50.848;6.776;2023-05-20T00:34:55;101096.13;;;17.53;47.98
72548;BME280;60570;50.848;6.776;2023-05-20T00:35:58;101093.22;;;17.49;47.71
72548;BME280;60570;50.848;6.776;2023-05-20T00:36:59;101095.56;;;17.47;47.94
72548;BME280;60570;50.848;6.776;2023-05-20T00:38:00;101087.50;;;17.46;47.72
72548;BME280;60570;50.848;6.776;2023-05-20T00:39:01;101087.88;;;17.44;47.76
72548;BME280;60570;50.848;6.776;2023-05-20T00:40:02;101090.78;;;17.48;47.79
72548;BME280;60570;50.848;6.776;2023-05-20T00:41:04;101093.56;;;17.48;47.96
72548;BME280;60570;50.848;6.776;2023-05-20T00:42:04;101081.91;;;17.46;47.93
72548;BME280;60570;50.848;6.776;2023-05-20T00:43:08;101083.09;;;17.45;47.94
72548;BME280;60570;50.848;6.776;2023-05-20T00:44:09;101073.03;;;17.44;47.75
72548;BME280;60570;50.848;6.776;2023-05-20T00:45:10;101086.25;;;17.43;48.13
72548;BME280;60570;50.848;6.776;2023-05-20T00:46:11;101076.66;;;17.44;48.04
72548;BME280;60570;50.848;6.776;2023-05-20T00:47:13;101080.28;;;17.45;47.75
72548;BME280;60570;50.848;6.776;2023-05-20T00:48:14;101079.47;;;17.44;48.00
72548;BME280;60570;50.848;6.776;2023-05-20T00:49:15;101076.72;;;17.48;47.97
72548;BME280;60570;50.848;6.776;2023-05-20T00:50:16;101077.03;;;17.43;47.86
72548;BME280;60570;50.848;6.776;2023-05-20T00:51:19;101080.63;;;17.43;47.85
72548;BME280;60570;50.848;6.776;2023-05-20T00:52:20;101078.25;;;17.45;47.97
72548;BME280;60570;50.848;6.776;2023-05-20T00:53:22;101078.25;;;17.45;48.12
72548;BME280;60570;50.848;6.776;2023-05-20T00:54:23;101081.06;;;17.45;47.85
72548;BME280;60570;50.848;6.776;2023-05-20T00:55:27;101076.28;;;17.46;47.91
72548;BME280;60570;50.848;6.776;2023-05-20T00:56:29;101076.28;;;17.46;47.90
72548;BME280;60570;50.848;6.776;2023-05-20T00:57:31;101077.47;;;17.45;47.73
72548;BME280;60570;50.848;6.776;2023-05-20T00:58:32;101073.84;;;17.44;48.13
72548;BME280;60570;50.848;6.776;2023-05-20T00:59:36;101074.22;;;17.43;47.69
72548;BME280;60570;50.848;6.776;2023-05-20T01:00:36;101071.31;;;17.39;47.94
72548;BME280;60570;50.848;6.776;2023-05-20T01:01:39;101072.94;;;17.40;48.05
72548;BME280;60570;50.848;6.776;2023-05-20T01:02:39;101071.75;;;17.41;48.05
72548;BME280;60570;50.848;6.776;2023-05-20T01:03:41;101074.56;;;17.41;47.96
72548;BME280;60570;50.848;6.776;2023-05-20T01:04:42;101075.00;;;17.43;47.88
72548;BME280;60570;50.848;6.776;2023-05-20T01:05:46;101067.78;;;17.42;47.88
72548;BME280;60570;50.848;6.776;2023-05-20T01:06:48;101075.75;;;17.40;48.09
72548;BME280;60570;50.848;6.776;2023-05-20T01:07:52;101072.94;;;17.40;47.95
72548;BME280;60570;50.848;6.776;2023-05-20T01:08:52;101072.94;;;17.40;47.73
72548;BME280;60570;50.848;6.776;2023-05-20T01:09:54;101066.50;;;17.40;47.89
72548;BME280;60570;50.848;6.776;2023-05-20T01:10:56;101071.97;;;17.33;48.15
72548;BME280;60570;50.848;6.776;2023-05-20T01:12:01;101068.03;;;17.37;47.99
72548;BME280;60570;50.848;6.776;2023-05-20T01:13:03;101070.84;;;17.37;48.08
72548;BME280;60570;50.848;6.776;2023-05-20T01:14:06;101067.69;;;17.39;47.89
72548;BME280;60570;50.848;6.776;2023-05-20T01:15:08;101067.25;;;17.37;47.91
72548;BME280;60570;50.848;6.776;2023-05-20T01:16:10;101068.41;;;17.36;47.95
72548;BME280;60570;50.848;6.776;2023-05-20T01:17:10;101059.16;;;17.35;47.87
72548;BME280;60570;50.848;6.776;2023-05-20T01:18:13;101063.19;;;17.34;47.94
72548;BME280;60570;50.848;6.776;2023-05-20T01:19:19;101061.19;;;17.35;47.96
72548;BME280;60570;50.848;6.776;2023-05-20T01:20:22;101065.97;;;17.34;48.13
72548;BME280;60570;50.848;6.776;2023-05-20T01:21:24;101063.19;;;17.34;48.02
72548;BME280;60570;50.848;6.776;2023-05-20T01:22:29;101059.47;;;17.30;47.96
72548;BME280;60570;50.848;6.776;2023-05-20T01:23:31;101064.34;;;17.33;48.15
72548;BME280;60570;50.848;6.776;2023-05-20T01:24:32;101066.69;;;17.31;48.14
72548;BME280;60570;50.848;6.776;2023-05-20T01:25:33;101059.53;;;17.34;47.91
72548;BME280;60570;50.848;6.776;2023-05-20T01:26:34;101064.00;;;17.35;47.87
72548;BME280;60570;50.848;6.776;2023-05-20T01:27:37;101060.75;;;17.33;48.04
72548;BME280;60570;50.848;6.776;2023-05-20T01:28:39;101068.28;;;17.29;48.20
72548;BME280;60570;50.848;6.776;2023-05-20T01:29:40;101069.44;;;17.28;47.76
72548;BME280;60570;50.848;6.776;2023-05-20T01:30:43;101068.66;;;17.27;47.91
72548;BME280;60570;50.848;6.776;2023-05-20T01:31:46;101061.38;;;17.26;47.90
72548;BME280;60570;50.848;6.776;2023-05-20T01:32:49;101063.75;;;17.24;48.51
72548;BME280;60570;50.848;6.776;2023-05-20T01:33:53;101067.81;;;17.27;47.98
72548;BME280;60570;50.848;6.776;2023-05-20T01:34:57;101060.56;;;17.26;48.21
72548;BME280;60570;50.848;6.776;2023-05-20T01:35:58;101066.56;;;17.24;48.11
72548;BME280;60570;50.848;6.776;2023-05-20T01:37:00;101061.38;;;17.26;48.07
72548;BME280;60570;50.848;6.776;2023-05-20T01:38:02;101054.94;;;17.26;48.18
72548;BME280;60570;50.848;6.776;2023-05-20T01:39:05;101054.88;;;17.22;48.05
72548;BME280;60570;50.848;6.776;2023-05-20T01:40:07;101058.06;;;17.21;47.90
72548;BME280;60570;50.848;6.776;2023-05-20T01:41:09;101054.81;;;17.19;48.33
72548;BME280;60570;50.848;6.776;2023-05-20T01:42:10;101052.00;;;17.19;48.13
72548;BME280;60570;50.848;6.776;2023-05-20T01:43:13;101051.16;;;17.18;48.05
72548;BME280;60570;50.848;6.776;2023-05-20T01:44:15;101046.91;;;17.24;48.20
72548;BME280;60570;50.848;6.776;2023-05-20T01:45:16;101045.63;;;17.22;48.13
72548;BME280;60570;50.848;6.776;2023-05-20T01:46:17;101048.81;;;17.20;48.14
72548;BME280;60570;50.848;6.776;2023-05-20T01:47:19;101053.16;;;17.18;48.21
72548;BME280;60570;50.848;6.776;2023-05-20T01:48:19;101047.53;;;17.18;48.16
72548;BME280;60570;50.848;6.776;2023-05-20T01:49:21;101057.22;;;17.20;47.98
72548;BME280;60570;50.848;6.776;2023-05-20T01:50:21;101049.63;;;17.21;47.98
72548;BME280;60570;50.848;6.776;2023-05-20T01:51:23;101055.16;;;17.17;48.02
72548;BME280;60570;50.848;6.776;2023-05-20T01:52:24;101054.34;;;17.17;48.07
72548;BME280;60570;50.848;6.776;2023-05-20T01:53:27;101053.91;;;17.15;48.14
72548;BME280;60570;50.848;6.776;2023-05-20T01:54:28;101048.66;;;17.13;48.04
72548;BME280;60570;50.848;6.776;2023-05-20T01:55:29;101045.47;;;17.15;48.05
72548;BME280;60570;50.848;6.776;2023-05-20T01:56:30;101049.56;;;17.17;48.18
72548;BME280;60570;50.848;6.776;2023-05-20T01:57:31;101043.03;;;17.13;48.03
72548;BME280;60570;50.848;6.776;2023-05-20T01:58:33;101042.59;;;17.11;48.29
72548;BME280;60570;50.848;6.776;2023-05-20T01:59:33;101039.78;;;17.11;48.30
72548;BME280;60570;50.848;6.776;2023-05-20T02:00:35;101043.41;;;17.12;48.39
72548;BME280;60570;50.848;6.776;2023-05-20T02:01:35;101039.78;;;17.11;48.51
72548;BME280;60570;50.848;6.776;2023-05-20T02:02:37;101042.53;;;17.08;48.39
72548;BME280;60570;50.848;6.776;2023-05-20T02:03:37;101040.16;;;17.10;48.36
72548;BME280;60570;50.848;6.776;2023-05-20T02:04:39;101036.59;;;17.13;48.36
72548;BME280;60570;50.848;6.776;2023-05-20T02:05:41;101033.34;;;17.11;48.27
72548;BME280;60570;50.848;6.776;2023-05-20T02:06:43;101034.53;;;17.10;48.21
72548;BME280;60570;50.848;6.776;2023-05-20T02:07:43;101040.25;;;17.13;48.02
72548;BME280;60570;50.848;6.776;2023-05-20T02:08:46;101035.44;;;17.14;48.02
72548;BME280;60570;50.848;6.776;2023-05-20T02:09:47;101043.75;;;17.10;48.32
72548;BME280;60570;50.848;6.776;2023-05-20T02:10:48;101035.72;;;17.09;48.02
72548;BME280;60570;50.848;6.776;2023-05-20T02:11:49;101036.09;;;17.07;48.06
72548;BME280;60570;50.848;6.776;2023-05-20T02:12:50;101049.38;;;17.10;48.12
72548;BME280;60570;50.848;6.776;2023-05-20T02:13:51;101038.06;;;17.07;48.01
72548;BME280;60570;50.848;6.776;2023-05-20T02:14:52;101046.56;;;17.10;48.31
72548;BME280;60570;50.848;6.776;2023-05-20T02:15:54;101038.53;;;17.09;48.28
72548;BME280;60570;50.848;6.776;2023-05-20T02:16:55;101040.16;;;17.10;48.35
72548;BME280;60570;50.848;6.776;2023-05-20T02:17:56;101035.72;;;17.09;48.24
72548;BME280;60570;50.848;6.776;2023-05-20T02:18:58;101034.09;;;17.08;48.10
72548;BME280;60570;50.848;6.776;2023-05-20T02:19:58;101036.91;;;17.08;48.13
72548;BME280;60570;50.848;6.776;2023-05-20T02:21:00;101040.81;;;17.03;48.35
72548;BME280;60570;50.848;6.776;2023-05-20T02:22:01;101034.44;;;17.06;48.49
72548;BME280;60570;50.848;6.776;2023-05-20T02:23:05;101036.81;;;17.04;48.42
72548;BME280;60570;50.848;6.776;2023-05-20T02:24:11;101037.63;;;17.04;48.55
72548;BME280;60570;50.848;6.776;2023-05-20T02:25:16;101038.38;;;17.01;48.41
72548;BME280;60570;50.848;6.776;2023-05-20T02:26:18;101033.13;;;17.00;48.73
72548;BME280;60570;50.848;6.776;2023-05-20T02:27:22;101031.47;;;16.99;48.32
72548;BME280;60570;50.848;6.776;2023-05-20T02:28:25;101032.69;;;16.98;48.49
72548;BME280;60570;50.848;6.776;2023-05-20T02:29:28;101033.84;;;16.97;48.54
72548;BME280;60570;50.848;6.776;2023-05-20T02:30:31;101035.47;;;16.98;48.34
72548;BME280;60570;50.848;6.776;2023-05-20T02:31:36;101035.47;;;16.98;48.30
72548;BME280;60570;50.848;6.776;2023-05-20T02:32:38;101029.06;;;16.97;48.58
72548;BME280;60570;50.848;6.776;2023-05-20T02:33:43;101027.78;;;16.95;48.42
72548;BME280;60570;50.848;6.776;2023-05-20T02:34:47;101028.59;;;16.95;48.74
72548;BME280;60570;50.848;6.776;2023-05-20T02:35:51;101030.97;;;16.93;48.38
72548;BME280;60570;50.848;6.776;2023-05-20T02:36:55;101034.13;;;16.92;48.24
72548;BME280;60570;50.848;6.776;2023-05-20T02:37:59;101035.28;;;16.91;48.35
72548;BME280;60570;50.848;6.776;2023-05-20T02:39:02;101036.50;;;16.90;48.65
72548;BME280;60570;50.848;6.776;2023-05-20T02:40:08;101042.56;;;16.92;48.49
72548;BME280;60570;50.848;6.776;2023-05-20T02:41:10;101042.19;;;16.93;48.56
72548;BME280;60570;50.848;6.776;2023-05-20T02:42:14;101034.03;;;16.88;48.50
72548;BME280;60570;50.848;6.776;2023-05-20T02:43:17;101043.28;;;16.89;48.42
72548;BME280;60570;50.848;6.776;2023-05-20T02:44:21;101050.88;;;16.88;48.55
72548;BME280;60570;50.848;6.776;2023-05-20T02:45:23;101034.41;;;16.87;48.75
72548;BME280;60570;50.848;6.776;2023-05-20T02:46:27;101039.63;;;16.88;48.66
72548;BME280;60570;50.848;6.776;2023-05-20T02:47:30;101029.59;;;16.87;48.36
72548;BME280;60570;50.848;6.776;2023-05-20T02:48:35;101028.78;;;16.87;48.45
72548;BME280;60570;50.848;6.776;2023-05-20T02:49:38;101032.78;;;16.86;48.58
72548;BME280;60570;50.848;6.776;2023-05-20T02:50:41;101027.88;;;16.83;48.65
72548;BME280;60570;50.848;6.776;2023-05-20T02:51:43;101031.97;;;16.85;48.60
72548;BME280;60570;50.848;6.776;2023-05-20T02:52:45;101021.19;;;16.87;48.56
72548;BME280;60570;50.848;6.776;2023-05-20T02:53:46;101029.16;;;16.85;48.50
72548;BME280;60570;50.848;6.776;2023-05-20T02:54:48;101018.31;;;16.84;48.54
72548;BME280;60570;50.848;6.776;2023-05-20T02:55:50;101025.06;;;16.83;48.45
72548;BME280;60570;50.848;6.776;2023-05-20T02:56:51;101027.88;;;16.83;48.50
72548;BME280;60570;50.848;6.776;2023-05-20T02:57:52;101024.63;;;16.81;48.70
72548;BME280;60570;50.848;6.776;2023-05-20T02:58:53;101021.03;;;16.80;48.85
72548;BME280;60570;50.848;6.776;2023-05-20T02:59:54;101016.22;;;16.81;48.55
72548;BME280;60570;50.848;6.776;2023-05-20T03:00:56;101016.22;;;16.81;48.69
72548;BME280;60570;50.848;6.776;2023-05-20T03:01:56;101017.84;;;16.82;48.67
72548;BME280;60570;50.848;6.776;2023-05-20T03:02:58;101020.22;;;16.80;48.64
72548;BME280;60570;50.848;6.776;2023-05-20T03:03:58;101021.38;;;16.79;48.73
72548;BME280;60570;50.848;6.776;2023-05-20T03:05:00;101021.38;;;16.79;48.82
72548;BME280;60570;50.848;6.776;2023-05-20T03:06:01;101017.78;;;16.78;48.70
72548;BME280;60570;50.848;6.776;2023-05-20T03:07:04;101014.97;;;16.78;48.71
72548;BME280;60570;50.848;6.776;2023-05-20T03:08:06;101019.75;;;16.78;48.66
72548;BME280;60570;50.848;6.776;2023-05-20T03:09:08;101013.31;;;16.77;48.82
72548;BME280;60570;50.848;6.776;2023-05-20T03:10:09;101010.06;;;16.75;48.71
72548;BME280;60570;50.848;6.776;2023-05-20T03:11:12;101013.69;;;16.76;48.91
72548;BME280;60570;50.848;6.776;2023-05-20T03:12:12;101011.25;;;16.74;49.01
72548;BME280;60570;50.848;6.776;2023-05-20T03:13:14;101006.44;;;16.75;48.84
72548;BME280;60570;50.848;6.776;2023-05-20T03:14:15;101016.88;;;16.74;49.02
72548;BME280;60570;50.848;6.776;2023-05-20T03:15:16;101015.22;;;16.73;48.92
72548;BME280;60570;50.848;6.776;2023-05-20T03:16:17;101008.84;;;16.73;48.94
72548;BME280;60570;50.848;6.776;2023-05-20T03:17:18;101011.97;;;16.71;48.89
72548;BME280;60570;50.848;6.776;2023-05-20T03:18:19;101012.78;;;16.72;48.81
72548;BME280;60570;50.848;6.776;2023-05-20T03:19:20;101013.16;;;16.70;48.92
72548;BME280;60570;50.848;6.776;2023-05-20T03:20:21;101007.56;;;16.70;49.00
72548;BME280;60570;50.848;6.776;2023-05-20T03:21:23;101010.38;;;16.70;49.00
72548;BME280;60570;50.848;6.776;2023-05-20T03:22:24;101007.56;;;16.70;48.96
72548;BME280;60570;50.848;6.776;2023-05-20T03:23:26;101014.00;;;16.71;48.95
72548;BME280;60570;50.848;6.776;2023-05-20T03:24:27;101009.91;;;16.68;48.93
72548;BME280;60570;50.848;6.776;2023-05-20T03:25:32;101019.94;;;16.69;49.10
72548;BME280;60570;50.848;6.776;2023-05-20T03:26:34;101015.91;;;16.67;48.88
72548;BME280;60570;50.848;6.776;2023-05-20T03:27:36;101015.06;;;16.66;49.00
72548;BME280;60570;50.848;6.776;2023-05-20T03:28:37;101017.88;;;16.66;48.90
72548;BME280;60570;50.848;6.776;2023-05-20T03:29:38;101021.06;;;16.65;49.24
72548;BME280;60570;50.848;6.776;2023-05-20T03:30:39;101016.22;;;16.65;48.84
72548;BME280;60570;50.848;6.776;2023-05-20T03:31:40;101024.56;;;16.62;48.98
72548;BME280;60570;50.848;6.776;2023-05-20T03:32:41;101021.75;;;16.62;49.26
72548;BME280;60570;50.848;6.776;2023-05-20T03:33:43;101021.75;;;16.62;49.17
72548;BME280;60570;50.848;6.776;2023-05-20T03:34:45;101019.78;;;16.62;49.16
72548;BME280;60570;50.848;6.776;2023-05-20T03:35:46;101020.59;;;16.63;49.12
72548;BME280;60570;50.848;6.776;2023-05-20T03:36:47;101015.34;;;16.61;48.97
72548;BME280;60570;50.848;6.776;2023-05-20T03:37:48;101018.25;;;16.65;49.04
72548;BME280;60570;50.848;6.776;2023-05-20T03:38:50;101015.78;;;16.63;49.11
72548;BME280;60570;50.848;6.776;2023-05-20T03:39:52;101016.53;;;16.60;48.94
72548;BME280;60570;50.848;6.776;2023-05-20T03:40:53;101006.47;;;16.59;49.15
72548;BME280;60570;50.848;6.776;2023-05-20T03:41:56;101014.88;;;16.59;48.84
72548;BME280;60570;50.848;6.776;2023-05-20T03:42:56;101020.50;;;16.59;49.09
72548;BME280;60570;50.848;6.776;2023-05-20T03:43:58;101014.47;;;16.57;49.09
72548;BME280;60570;50.848;6.776;2023-05-20T03:44:58;101014.47;;;16.57;49.18
72548;BME280;60570;50.848;6.776;2023-05-20T03:46:00;101015.63;;;16.56;49.39
72548;BME280;60570;50.848;6.776;2023-05-20T03:47:01;101012.00;;;16.56;49.32
72548;BME280;60570;50.848;6.776;2023-05-20T03:48:02;101013.19;;;16.55;49.37
72548;BME280;60570;50.848;6.776;2023-05-20T03:49:03;101023.66;;;16.58;49.21
72548;BME280;60570;50.848;6.776;2023-05-20T03:50:06;101011.22;;;16.55;49.02
72548;BME280;60570;50.848;6.776;2023-05-20T03:51:06;101013.19;;;16.55;49.28
72548;BME280;60570;50.848;6.776;2023-05-20T03:52:08;101010.84;;;16.57;49.27
72548;BME280;60570;50.848;6.776;2023-05-20T03:53:09;101013.19;;;16.55;48.99
72548;BME280;60570;50.848;6.776;2023-05-20T03:54:10;101009.56;;;16.54;49.31
72548;BME280;60570;50.848;6.776;2023-05-20T03:55:11;101013.19;;;16.55;49.08
72548;BME280;60570;50.848;6.776;2023-05-20T03:56:12;101013.09;;;16.51;49.29
72548;BME280;60570;50.848;6.776;2023-05-20T03:57:14;101017.16;;;16.54;49.47
72548;BME280;60570;50.848;6.776;2023-05-20T03:58:16;101011.91;;;16.52;49.26
72548;BME280;60570;50.848;6.776;2023-05-20T03:59:17;101011.00;;;16.48;49.54
72548;BME280;60570;50.848;6.776;2023-05-20T04:00:18;101015.91;;;16.51;49.42
72548;BME280;60570;50.848;6.776;2023-05-20T04:01:20;101012.97;;;16.48;49.59
72548;BME280;60570;50.848;6.776;2023-05-20T04:02:24;101011.47;;;16.50;49.12
72548;BME280;60570;50.848;6.776;2023-05-20T04:03:25;101008.22;;;16.48;49.35
72548;BME280;60570;50.848;6.776;2023-05-20T04:04:27;101009.03;;;16.49;49.56
72548;BME280;60570;50.848;6.776;2023-05-20T04:05:28;101012.16;;;16.47;49.27
72548;BME280;60570;50.848;6.776;2023-05-20T04:06:31;101012.97;;;16.48;49.53
72548;BME280;60570;50.848;6.776;2023-05-20T04:07:32;101010.53;;;16.46;49.42
72548;BME280;60570;50.848;6.776;2023-05-20T04:08:33;101010.06;;;16.44;49.43
72548;BME280;60570;50.848;6.776;2023-05-20T04:09:36;101015.31;;;16.46;49.45
72548;BME280;60570;50.848;6.776;2023-05-20T04:10:40;101011.72;;;16.45;49.46
72548;BME280;60570;50.848;6.776;2023-05-20T04:11:41;101012.88;;;16.44;49.41
72548;BME280;60570;50.848;6.776;2023-05-20T04:12:44;101001.22;;;16.42;49.18
72548;BME280;60570;50.848;6.776;2023-05-20T04:13:46;101012.78;;;16.41;49.38
72548;BME280;60570;50.848;6.776;2023-05-20T04:14:47;101010.00;;;16.41;49.57
72548;BME280;60570;50.848;6.776;2023-05-20T04:15:49;101010.06;;;16.44;49.38
72548;BME280;60570;50.848;6.776;2023-05-20T04:16:50;101014.88;;;16.44;49.58
72548;BME280;60570;50.848;6.776;2023-05-20T04:17:51;101009.63;;;16.42;49.30
72548;BME280;60570;50.848;6.776;2023-05-20T04:18:53;101014.44;;;16.42;49.30
72548;BME280;60570;50.848;6.776;2023-05-20T04:19:54;101008.47;;;16.43;49.45
72548;BME280;60570;50.848;6.776;2023-05-20T04:20:55;101010.91;;;16.45;49.44
72548;BME280;60570;50.848;6.776;2023-05-20T04:21:56;101010.44;;;16.43;49.25
72548;BME280;60570;50.848;6.776;2023-05-20T04:22:58;101010.81;;;16.41;49.65
72548;BME280;60570;50.848;6.776;2023-05-20T04:23:58;101017.59;;;16.40;49.47
72548;BME280;60570;50.848;6.776;2023-05-20T04:25:00;101017.69;;;16.44;49.28
72548;BME280;60570;50.848;6.776;2023-05-20T04:26:03;101012.72;;;16.37;49.53
72548;BME280;60570;50.848;6.776;2023-05-20T04:27:05;101011.19;;;16.40;49.55
72548;BME280;60570;50.848;6.776;2023-05-20T04:28:08;101011.19;;;16.40;49.57
72548;BME280;60570;50.848;6.776;2023-05-20T04:29:13;101009.53;;;16.39;49.73
72548;BME280;60570;50.848;6.776;2023-05-20T04:30:15;101013.16;;;16.39;49.49
72548;BME280;60570;50.848;6.776;2023-05-20T04:31:17;101015.88;;;16.36;49.65
72548;BME280;60570;50.848;6.776;2023-05-20T04:32:18;101006.72;;;16.39;49.65
72548;BME280;60570;50.848;6.776;2023-05-20T04:33:21;101008.72;;;16.38;49.68
72548;BME280;60570;50.848;6.776;2023-05-20T04:34:22;101014.78;;;16.40;49.53
72548;BME280;60570;50.848;6.776;2023-05-20T04:35:25;101012.72;;;16.37;49.66
72548;BME280;60570;50.848;6.776;2023-05-20T04:36:27;101009.09;;;16.37;49.59
72548;BME280;60570;50.848;6.776;2023-05-20T04:37:28;101015.06;;;16.35;49.62
72548;BME280;60570;50.848;6.776;2023-05-20T04:38:31;101008.25;;;16.36;49.54
72548;BME280;60570;50.848;6.776;2023-05-20T04:39:32;101008.63;;;16.35;49.57
72548;BME280;60570;50.848;6.776;2023-05-20T04:40:34;101015.88;;;16.36;49.69
72548;BME280;60570;50.848;6.776;2023-05-20T04:41:35;101012.72;;;16.37;49.82
72548;BME280;60570;50.848;6.776;2023-05-20T04:42:36;101015.88;;;16.36;49.67
72548;BME280;60570;50.848;6.776;2023-05-20T04:43:39;101013.88;;;16.36;49.63
72548;BME280;60570;50.848;6.776;2023-05-20T04:44:40;101018.78;;;16.39;49.60
72548;BME280;60570;50.848;6.776;2023-05-20T04:45:41;101018.69;;;16.36;49.61
72548;BME280;60570;50.848;6.776;2023-05-20T04:46:42;101024.63;;;16.34;49.71
72548;BME280;60570;50.848;6.776;2023-05-20T04:47:44;101017.88;;;16.35;49.81
72548;BME280;60570;50.848;6.776;2023-05-20T04:48:45;101026.28;;;16.35;49.76
72548;BME280;60570;50.848;6.776;2023-05-20T04:49:47;101023.03;;;16.33;49.77
72548;BME280;60570;50.848;6.776;2023-05-20T04:50:50;101020.66;;;16.35;49.77
72548;BME280;60570;50.848;6.776;2023-05-20T04:51:52;101015.06;;;16.35;49.56
72548;BME280;60570;50.848;6.776;2023-05-20T04:52:54;101011.44;;;16.35;49.87
72548;BME280;60570;50.848;6.776;2023-05-20T04:53:56;101017.03;;;16.35;49.92
72548;BME280;60570;50.848;6.776;2023-05-20T04:54:58;101014.59;;;16.33;49.79
72548;BME280;60570;50.848;6.776;2023-05-20T04:56:01;101020.22;;;16.33;49.73
72548;BME280;60570;50.848;6.776;2023-05-20T04:57:02;101019.03;;;16.34;49.75
72548;BME280;60570;50.848;6.776;2023-05-20T04:58:04;101011.81;;;16.33;49.79
72548;BME280;60570;50.848;6.776;2023-05-20T04:59:07;101025.38;;;16.31;49.81
72548;BME280;60570;50.848;6.776;2023-05-20T05:00:09;101010.91;;;16.29;50.12
72548;BME280;60570;50.848;6.776;2023-05-20T05:01:11;101025.38;;;16.31;49.73
72548;BME280;60570;50.848;6.776;2023-05-20T05:02:13;101015.69;;;16.29;49.91
72548;BME280;60570;50.848;6.776;2023-05-20T05:03:14;101009.38;;;16.32;49.74
72548;BME280;60570;50.848;6.776;2023-05-20T05:04:15;101010.16;;;16.32;49.81
72548;BME280;60570;50.848;6.776;2023-05-20T05:05:16;101015.78;;;16.32;49.87
72548;BME280;60570;50.848;6.776;2023-05-20T05:06:17;101004.91;;;16.31;50.07
72548;BME280;60570;50.848;6.776;2023-05-20T05:07:20;101004.91;;;16.31;50.05
72548;BME280;60570;50.848;6.776;2023-05-20T05:08:21;101010.16;;;16.32;49.74
72548;BME280;60570;50.848;6.776;2023-05-20T05:09:22;101006.56;;;16.32;49.99
72548;BME280;60570;50.848;6.776;2023-05-20T05:10:23;100999.59;;;16.26;50.15
72548;BME280;60570;50.848;6.776;2023-05-20T05:11:25;101006.47;;;16.28;50.02
72548;BME280;60570;50.848;6.776;2023-05-20T05:12:26;101003.31;;;16.30;50.02
72548;BME280;60570;50.848;6.776;2023-05-20T05:13:28;101012.53;;;16.30;49.99
72548;BME280;60570;50.848;6.776;2023-05-20T05:14:30;101010.44;;;16.27;50.04
72548;BME280;60570;50.848;6.776;2023-05-20T05:15:32;101009.28;;;16.28;50.23
72548;BME280;60570;50.848;6.776;2023-05-20T05:16:32;101006.03;;;16.26;50.27
72548;BME280;60570;50.848;6.776;2023-05-20T05:17:34;101002.84;;;16.28;50.22
72548;BME280;60570;50.848;6.776;2023-05-20T05:18:34;101002.41;;;16.26;50.21
72548;BME280;60570;50.848;6.776;2023-05-20T05:19:36;101004.38;;;16.25;50.16
72548;BME280;60570;50.848;6.776;2023-05-20T05:20:37;101009.53;;;16.23;50.10
72548;BME280;60570;50.848;6.776;2023-05-20T05:21:39;101002.41;;;16.26;49.96
72548;BME280;60570;50.848;6.776;2023-05-20T05:22:39;101008.00;;;16.26;50.16